Time;durP1;ratioP1;P1;durP2;ratioP2;P2;SDS_P1;SDS_P2;PMS_P1;PMS_P2;Temp;Humidity;BMP_temperature;BMP_pressure;BME280_temperature;BME280_humidity;BME280_pressure;Samples;Min_cycle;Max_cycle;Signal;HPM_P1;HPM_P2
2022/10/25 00:00:19;;;;;;;76.93;33.55;;;;;;;;;;5052399;28;20108;-39
2022/10/25 00:02:44;;;;;;;71.85;33.60;;;;;;;;;;5051424;28;20025;-40
2022/10/25 00:05:13;;;;;;;69.00;32.08;;;;;;;;;;5052559;28;20048;-41
2022/10/25 00:07:38;;;;;;;60.92;31.63;;;;;;;;;;5052502;28;20029;-38
2022/10/25 00:10:04;;;;;;;69.00;31.27;;;;;;;;;;5052644;28;20383;-36
2022/10/25 00:12:29;;;;;;;68.38;32.15;;;;;;;;;;5052310;28;20456;-40
2022/10/25 00:14:54;;;;;;;61.78;31.73;;;;;;;;;;5051146;28;20059;-38
2022/10/25 00:17:20;;;;;;;61.90;31.08;;;;;;;;;;5052821;28;20049;-40
2022/10/25 00:19:45;;;;;;;62.50;30.23;;;;;;;;;;5052528;28;20028;-40
2022/10/25 00:22:10;;;;;;;56.05;31.42;;;;;;;;;;5052368;28;20025;-39
2022/10/25 00:24:36;;;;;;;63.00;29.77;;;;;;;;;;5052246;28;20037;-39
2022/10/25 00:27:01;;;;;;;69.88;33.40;;;;;;;;;;5056012;28;20246;-37
2022/10/25 00:29:26;;;;;;;70.28;32.33;;;;;;;;;;5056114;28;20024;-38
2022/10/25 00:31:51;;;;;;;63.65;32.20;;;;;;;;;;5056216;28;20024;-39
2022/10/25 00:34:17;;;;;;;61.50;32.00;;;;;;;;;;5056051;28;20024;-41
2022/10/25 00:36:42;;;;;;;65.27;30.73;;;;;;;;;;5056381;28;20234;-41
2022/10/25 00:39:08;;;;;;;60.10;32.30;;;;;;;;;;5056032;28;20653;-40
2022/10/25 00:41:33;;;;;;;61.50;31.27;;;;;;;;;;5055883;28;20024;-41
2022/10/25 00:44:17;;;;;;;57.40;30.42;;;;;;;;;;5037618;28;20140;-41
2022/10/25 00:46:43;;;;;;;59.35;29.60;;;;;;;;;;5055950;28;20029;-40
2022/10/25 00:49:17;;;;;;;59.58;29.55;;;;;;;;;;5055788;28;20017;-41
2022/10/25 00:51:46;;;;;;;54.75;29.75;;;;;;;;;;5055825;28;20159;-39
2022/10/25 00:54:13;;;;;;;55.63;27.17;;;;;;;;;;5055674;28;20025;-41
2022/10/25 00:56:39;;;;;;;57.30;30.00;;;;;;;;;;5055948;28;20029;-39
2022/10/25 00:59:07;;;;;;;61.55;32.10;;;;;;;;;;5055680;28;20357;-41
2022/10/25 01:01:32;;;;;;;62.33;31.35;;;;;;;;;;5055623;28;20032;-36
2022/10/25 01:03:59;;;;;;;64.55;30.33;;;;;;;;;;5055685;28;20037;-39
2022/10/25 01:06:35;;;;;;;59.83;30.05;;;;;;;;;;5055427;28;20507;-41
2022/10/25 01:09:01;;;;;;;66.47;33.33;;;;;;;;;;5055239;28;20475;-41
2022/10/25 01:11:27;;;;;;;66.45;32.92;;;;;;;;;;5055422;28;20415;-39
2022/10/25 01:13:52;;;;;;;71.78;34.10;;;;;;;;;;5055715;28;20021;-42
2022/10/25 01:16:17;;;;;;;63.70;32.33;;;;;;;;;;5055540;28;20025;-40
2022/10/25 01:19:09;;;;;;;69.60;32.93;;;;;;;;;;5055274;28;20486;-37
2022/10/25 01:21:38;;;;;;;67.38;31.38;;;;;;;;;;5053937;28;20262;-41
2022/10/25 01:24:22;;;;;;;71.88;31.63;;;;;;;;;;5053949;28;20087;-40
2022/10/25 01:26:47;;;;;;;62.22;30.90;;;;;;;;;;5054990;28;20033;-38
2022/10/25 01:29:26;;;;;;;101.97;30.48;;;;;;;;;;5055023;28;20044;-36
2022/10/25 01:31:52;;;;;;;69.25;30.60;;;;;;;;;;5054800;28;20523;-38
2022/10/25 01:34:32;;;;;;;77.93;30.50;;;;;;;;;;5054994;28;20024;-39
2022/10/25 01:37:08;;;;;;;79.85;30.75;;;;;;;;;;5054448;28;20029;-39
2022/10/25 01:39:53;;;;;;;59.13;29.65;;;;;;;;;;5054818;28;20155;-40
2022/10/25 01:42:24;;;;;;;59.05;29.50;;;;;;;;;;5053971;28;20052;-40
2022/10/25 01:45:05;;;;;;;59.60;30.33;;;;;;;;;;5054857;28;20377;-39
2022/10/25 01:47:40;;;;;;;56.25;29.52;;;;;;;;;;5053262;28;20033;-41
2022/10/25 01:50:05;;;;;;;61.58;30.42;;;;;;;;;;5054728;28;20028;-38
2022/10/25 01:52:31;;;;;;;65.93;29.95;;;;;;;;;;5054474;28;20028;-42
2022/10/25 01:54:56;;;;;;;63.75;29.92;;;;;;;;;;5053108;28;20055;-40
2022/10/25 01:57:31;;;;;;;71.35;31.95;;;;;;;;;;5054574;28;20024;-37
2022/10/25 02:00:16;;;;;;;81.78;32.72;;;;;;;;;;5054434;28;20133;-40
2022/10/25 02:02:51;;;;;;;80.25;32.78;;;;;;;;;;5054373;28;20082;-36
2022/10/25 02:05:25;;;;;;;79.05;33.40;;;;;;;;;;5052992;28;20021;-38
2022/10/25 02:07:58;;;;;;;70.78;33.05;;;;;;;;;;5054563;28;20035;-40
2022/10/25 02:10:35;;;;;;;79.15;34.38;;;;;;;;;;5054257;28;20060;-38
2022/10/25 02:13:03;;;;;;;75.55;34.45;;;;;;;;;;5054206;28;20028;-38
2022/10/25 02:15:33;;;;;;;74.47;32.58;;;;;;;;;;5054006;28;20460;-37
2022/10/25 02:17:59;;;;;;;69.78;30.48;;;;;;;;;;5054595;28;20024;-36
2022/10/25 02:20:25;;;;;;;65.25;29.65;;;;;;;;;;5054068;28;20106;-35
2022/10/25 02:22:52;;;;;;;65.85;31.52;;;;;;;;;;5053951;28;20387;-38
2022/10/25 02:25:18;;;;;;;69.70;31.83;;;;;;;;;;5052558;28;20027;-38
2022/10/25 02:27:43;;;;;;;68.75;31.17;;;;;;;;;;5053813;28;20029;-36
2022/10/25 02:30:09;;;;;;;70.97;31.50;;;;;;;;;;5053704;28;20079;-38
2022/10/25 02:32:34;;;;;;;66.65;28.98;;;;;;;;;;5054009;28;20036;-39
2022/10/25 02:35:00;;;;;;;69.25;30.13;;;;;;;;;;5054099;28;20036;-40
2022/10/25 02:37:25;;;;;;;66.28;29.20;;;;;;;;;;5052465;28;20021;-40
2022/10/25 02:39:50;;;;;;;75.63;30.08;;;;;;;;;;5053614;28;20092;-36
2022/10/25 02:42:16;;;;;;;61.67;28.65;;;;;;;;;;5052454;28;20475;-39
2022/10/25 02:44:41;;;;;;;63.33;29.45;;;;;;;;;;5052058;28;20057;-40
2022/10/25 02:47:06;;;;;;;64.68;29.25;;;;;;;;;;5052362;28;20020;-39
2022/10/25 02:49:32;;;;;;;65.50;28.65;;;;;;;;;;5051724;28;20502;-40
2022/10/25 02:51:57;;;;;;;63.97;30.05;;;;;;;;;;5053458;28;20017;-40
2022/10/25 02:54:22;;;;;;;71.97;31.00;;;;;;;;;;5053273;28;20025;-39
2022/10/25 02:56:51;;;;;;;63.25;29.88;;;;;;;;;;5052028;28;20021;-39
2022/10/25 02:59:17;;;;;;;69.47;30.50;;;;;;;;;;5053344;28;20530;-38
2022/10/25 03:01:42;;;;;;;69.53;30.42;;;;;;;;;;5053354;28;20049;-39
2022/10/25 03:04:07;;;;;;;85.40;30.58;;;;;;;;;;5052086;28;20479;-38
2022/10/25 03:06:32;;;;;;;69.72;31.33;;;;;;;;;;5052978;28;20095;-42
2022/10/25 03:08:58;;;;;;;75.00;30.83;;;;;;;;;;5053185;28;20020;-38
2022/10/25 03:11:23;;;;;;;72.70;31.02;;;;;;;;;;5052209;28;20071;-41
2022/10/25 03:13:48;;;;;;;86.60;33.55;;;;;;;;;;5053053;28;20079;-42
2022/10/25 03:16:14;;;;;;;80.27;33.13;;;;;;;;;;5052947;28;20025;-37
2022/10/25 03:18:39;;;;;;;87.50;33.58;;;;;;;;;;5052945;28;20593;-41
2022/10/25 03:21:05;;;;;;;79.45;32.85;;;;;;;;;;5051796;28;20388;-38
2022/10/25 03:23:30;;;;;;;93.82;34.85;;;;;;;;;;5053002;28;20115;-40
2022/10/25 03:25:57;;;;;;;84.63;33.75;;;;;;;;;;5051759;28;20028;-40
2022/10/25 03:28:22;;;;;;;96.22;35.63;;;;;;;;;;5051216;28;20021;-41
2022/10/25 03:30:49;;;;;;;89.10;33.35;;;;;;;;;;5052781;28;20387;-41
2022/10/25 03:33:15;;;;;;;87.70;32.83;;;;;;;;;;5053343;28;20021;-37
2022/10/25 03:35:40;;;;;;;95.72;35.92;;;;;;;;;;5052798;28;20507;-41
2022/10/25 03:38:05;;;;;;;100.67;35.57;;;;;;;;;;5051243;28;20373;-38
2022/10/25 03:40:31;;;;;;;91.43;34.28;;;;;;;;;;5052798;28;20239;-40
2022/10/25 03:42:56;;;;;;;94.05;35.28;;;;;;;;;;5051051;28;20060;-38
2022/10/25 03:45:21;;;;;;;86.30;34.50;;;;;;;;;;5053015;28;20025;-39
2022/10/25 03:47:46;;;;;;;95.68;32.55;;;;;;;;;;5051411;28;20278;-43
2022/10/25 03:50:12;;;;;;;96.57;35.13;;;;;;;;;;5051294;28;20059;-43
2022/10/25 03:52:38;;;;;;;89.90;34.72;;;;;;;;;;5052571;28;20017;-40
2022/10/25 03:55:04;;;;;;;83.05;33.92;;;;;;;;;;5052541;28;20044;-40
2022/10/25 03:57:29;;;;;;;80.32;33.45;;;;;;;;;;5052473;28;20025;-41
2022/10/25 03:59:56;;;;;;;86.60;32.50;;;;;;;;;;5054415;28;20020;-42
2022/10/25 04:02:21;;;;;;;94.82;33.20;;;;;;;;;;5056468;28;20036;-41
2022/10/25 04:04:47;;;;;;;83.85;32.88;;;;;;;;;;5056340;28;20384;-37
2022/10/25 04:07:12;;;;;;;90.07;33.55;;;;;;;;;;5056530;28;20021;-39
2022/10/25 04:09:37;;;;;;;94.53;34.58;;;;;;;;;;5056563;28;20025;-44
2022/10/25 04:12:03;;;;;;;87.07;33.08;;;;;;;;;;5056451;28;20064;-43
2022/10/25 04:14:28;;;;;;;99.07;35.45;;;;;;;;;;5056634;28;20361;-40
2022/10/25 04:16:53;;;;;;;84.47;35.20;;;;;;;;;;5056812;28;20120;-42
2022/10/25 04:19:18;;;;;;;81.35;33.60;;;;;;;;;;5054997;28;20050;-39
2022/10/25 04:21:44;;;;;;;89.53;34.30;;;;;;;;;;5056716;28;20100;-41
2022/10/25 04:24:09;;;;;;;94.63;34.10;;;;;;;;;;5054842;28;20695;-41
2022/10/25 04:26:35;;;;;;;89.07;32.97;;;;;;;;;;5054893;28;20032;-39
2022/10/25 04:29:01;;;;;;;86.30;33.97;;;;;;;;;;5055976;28;20023;-42
2022/10/25 04:31:26;;;;;;;88.95;35.08;;;;;;;;;;5056040;28;20387;-37
2022/10/25 04:33:52;;;;;;;92.43;34.33;;;;;;;;;;5054886;28;20387;-39
2022/10/25 04:36:18;;;;;;;86.03;34.25;;;;;;;;;;5054648;28;20060;-39
2022/10/25 04:38:46;;;;;;;83.90;33.05;;;;;;;;;;5055931;28;20107;-41
2022/10/25 04:41:12;;;;;;;89.72;33.40;;;;;;;;;;5055950;28;20024;-37
2022/10/25 04:43:37;;;;;;;92.63;32.78;;;;;;;;;;5055334;28;20049;-42
2022/10/25 04:46:02;;;;;;;85.23;33.03;;;;;;;;;;5055911;28;20021;-42
2022/10/25 04:48:28;;;;;;;86.22;34.35;;;;;;;;;;5055637;28;20736;-40
2022/10/25 04:50:53;;;;;;;94.60;35.22;;;;;;;;;;5055805;28;20021;-37
2022/10/25 04:53:19;;;;;;;85.82;33.63;;;;;;;;;;5055947;28;20460;-38
2022/10/25 04:55:53;;;;;;;94.10;32.35;;;;;;;;;;5054315;28;20032;-36
2022/10/25 04:58:19;;;;;;;82.07;32.95;;;;;;;;;;5054432;28;20427;-42
2022/10/25 05:00:45;;;;;;;80.93;31.67;;;;;;;;;;5055403;28;20452;-38
2022/10/25 05:03:11;;;;;;;74.85;30.15;;;;;;;;;;5054202;28;20552;-40
2022/10/25 05:05:36;;;;;;;87.95;31.50;;;;;;;;;;5054337;28;20056;-39
2022/10/25 05:08:01;;;;;;;70.22;28.90;;;;;;;;;;5054151;28;20028;-42
2022/10/25 05:10:27;;;;;;;76.03;32.03;;;;;;;;;;5054888;28;20029;-42
2022/10/25 05:12:53;;;;;;;76.57;30.63;;;;;;;;;;5054857;28;20059;-39
2022/10/25 05:15:18;;;;;;;81.10;29.75;;;;;;;;;;5054221;28;20390;-42
2022/10/25 05:17:43;;;;;;;69.75;27.58;;;;;;;;;;5055288;28;20100;-40
2022/10/25 05:20:09;;;;;;;68.70;28.50;;;;;;;;;;5053852;28;20025;-38
2022/10/25 05:22:34;;;;;;;78.15;29.05;;;;;;;;;;5053863;28;20510;-39
2022/10/25 05:24:59;;;;;;;88.60;31.95;;;;;;;;;;5054965;28;20035;-35
2022/10/25 05:27:25;;;;;;;80.25;34.15;;;;;;;;;;5053585;28;20764;-38
2022/10/25 05:29:50;;;;;;;78.35;31.35;;;;;;;;;;5054998;28;20102;-39
2022/10/25 05:32:15;;;;;;;73.00;29.88;;;;;;;;;;5054846;28;20147;-40
2022/10/25 05:34:41;;;;;;;73.38;31.20;;;;;;;;;;5053576;28;20057;-39
2022/10/25 05:37:06;;;;;;;79.63;32.00;;;;;;;;;;5055185;28;20032;-37
2022/10/25 05:39:31;;;;;;;85.75;33.08;;;;;;;;;;5053520;28;20025;-39
2022/10/25 05:41:57;;;;;;;97.25;37.40;;;;;;;;;;5054610;28;20025;-41
2022/10/25 05:44:22;;;;;;;84.15;33.70;;;;;;;;;;5054317;28;20064;-42
2022/10/25 05:46:48;;;;;;;92.65;35.85;;;;;;;;;;5054587;28;20112;-41
2022/10/25 05:49:13;;;;;;;85.05;33.30;;;;;;;;;;5053354;28;20021;-39
2022/10/25 05:51:38;;;;;;;78.95;31.40;;;;;;;;;;5054673;28;20017;-39
2022/10/25 05:54:08;;;;;;;80.47;33.20;;;;;;;;;;5054573;28;20024;-40
2022/10/25 05:56:34;;;;;;;80.00;32.63;;;;;;;;;;5054398;28;20049;-42
2022/10/25 05:59:07;;;;;;;65.93;28.60;;;;;;;;;;5053152;28;20435;-40
2022/10/25 06:01:33;;;;;;;123.28;49.55;;;;;;;;;;5043014;28;20036;-42
2022/10/25 06:03:58;;;;;;;66.38;27.10;;;;;;;;;;5046896;28;20040;-43
2022/10/25 06:06:23;;;;;;;65.03;25.95;;;;;;;;;;5040735;28;20039;-43
2022/10/25 06:08:49;;;;;;;63.58;27.52;;;;;;;;;;5039493;28;20018;-39
2022/10/25 06:11:16;;;;;;;60.35;24.63;;;;;;;;;;5043288;28;20100;-43
2022/10/25 06:13:42;;;;;;;60.53;27.10;;;;;;;;;;5034328;28;20017;-40
2022/10/25 06:16:08;;;;;;;63.50;23.55;;;;;;;;;;5034557;28;20091;-41
2022/10/25 06:18:35;;;;;;;122.45;53.83;;;;;;;;;;5040660;28;20107;-39
2022/10/25 06:21:04;;;;;;;55.13;25.70;;;;;;;;;;5038964;28;20032;-42
2022/10/25 06:23:35;;;;;;;;;;;;;;;;;;5043631;28;20475;-39
2022/10/25 06:26:01;;;;;;;319.50;190.63;;;;;;;;;;5039104;28;19915;-41
2022/10/25 06:28:27;;;;;;;281.35;250.65;;;;;;;;;;5039279;28;20150;-41
2022/10/25 06:30:52;;;;;;;64.55;23.45;;;;;;;;;;5048118;28;20094;-39
2022/10/25 06:33:17;;;;;;;64.90;28.45;;;;;;;;;;5053776;28;20135;-41
2022/10/25 06:35:43;;;;;;;94.70;26.02;;;;;;;;;;5046206;28;20028;-40
2022/10/25 06:38:08;;;;;;;57.92;22.77;;;;;;;;;;5040222;28;20024;-42
2022/10/25 06:40:34;;;;;;;61.97;22.13;;;;;;;;;;5053768;28;20074;-41
2022/10/25 06:42:59;;;;;;;57.75;21.98;;;;;;;;;;5041756;28;20055;-39
2022/10/25 06:45:24;;;;;;;50.60;20.77;;;;;;;;;;5032370;28;20032;-41
2022/10/25 06:47:50;;;;;;;66.97;21.42;;;;;;;;;;5035573;28;20594;-41
2022/10/25 06:50:15;;;;;;;37.38;17.27;;;;;;;;;;5043553;28;20029;-42
2022/10/25 06:52:41;;;;;;;40.50;17.63;;;;;;;;;;5043961;28;20028;-43
2022/10/25 06:55:06;;;;;;;41.70;16.98;;;;;;;;;;5044960;28;20090;-41
2022/10/25 06:57:32;;;;;;;49.00;17.42;;;;;;;;;;5034547;28;20029;-42
2022/10/25 06:59:57;;;;;;;50.55;18.77;;;;;;;;;;5036959;28;20063;-42
2022/10/25 07:02:22;;;;;;;49.25;17.88;;;;;;;;;;5043966;28;20108;-42
2022/10/25 07:04:47;;;;;;;45.92;17.40;;;;;;;;;;5047046;28;20116;-40
2022/10/25 07:07:13;;;;;;;40.33;16.77;;;;;;;;;;5034928;28;20048;-42
2022/10/25 07:09:41;;;;;;;37.80;17.15;;;;;;;;;;5040049;28;20028;-40
2022/10/25 07:12:07;;;;;;;47.00;18.15;;;;;;;;;;5042046;28;20061;-40
2022/10/25 07:14:32;;;;;;;46.00;17.65;;;;;;;;;;5047018;28;20056;-42
2022/10/25 07:16:57;;;;;;;43.72;17.65;;;;;;;;;;5034165;28;20045;-41
2022/10/25 07:19:23;;;;;;;47.70;19.45;;;;;;;;;;5038738;28;20032;-44
2022/10/25 07:21:49;;;;;;;46.78;19.98;;;;;;;;;;5038537;28;20452;-43
2022/10/25 07:24:14;;;;;;;50.70;20.75;;;;;;;;;;5038559;28;20029;-44
2022/10/25 07:26:39;;;;;;;60.22;23.02;;;;;;;;;;5036437;28;20052;-44
2022/10/25 07:29:05;;;;;;;48.88;20.70;;;;;;;;;;5047756;28;20024;-43
2022/10/25 07:31:31;;;;;;;55.38;22.35;;;;;;;;;;5038615;28;20021;-44
2022/10/25 07:33:58;;;;;;;49.90;19.70;;;;;;;;;;5035678;28;20108;-43
2022/10/25 07:36:23;;;;;;;55.03;22.45;;;;;;;;;;5043222;28;20036;-35
2022/10/25 07:38:49;;;;;;;49.97;22.38;;;;;;;;;;5044898;28;20392;-40
2022/10/25 07:41:14;;;;;;;56.60;21.30;;;;;;;;;;5044791;28;20475;-40
2022/10/25 07:43:39;;;;;;;58.92;22.75;;;;;;;;;;5043971;28;20458;-42
2022/10/25 07:46:06;;;;;;;53.95;19.55;;;;;;;;;;5051717;28;20488;-39
2022/10/25 07:48:32;;;;;;;50.00;18.58;;;;;;;;;;5036942;28;20025;-43
2022/10/25 07:51:01;;;;;;;41.90;17.80;;;;;;;;;;5037766;28;20026;-42
2022/10/25 07:53:26;;;;;;;42.53;17.73;;;;;;;;;;5035001;28;20025;-42
2022/10/25 07:55:53;;;;;;;31.60;15.45;;;;;;;;;;5045928;28;20411;-38
2022/10/25 07:58:18;;;;;;;39.72;16.40;;;;;;;;;;5051847;28;20100;-41
2022/10/25 08:00:44;;;;;;;40.47;17.00;;;;;;;;;;5051516;28;20107;-44
2022/10/25 08:03:09;;;;;;;41.47;18.35;;;;;;;;;;5050428;28;20075;-42
2022/10/25 08:05:35;;;;;;;46.65;17.95;;;;;;;;;;5045872;28;20066;-38
2022/10/25 08:08:01;;;;;;;40.33;16.92;;;;;;;;;;5044892;28;20375;-38
2022/10/25 08:10:26;;;;;;;42.95;17.90;;;;;;;;;;5039756;28;20108;-42
2022/10/25 08:12:53;;;;;;;41.40;17.08;;;;;;;;;;5040129;28;20024;-40
2022/10/25 08:15:19;;;;;;;57.72;18.73;;;;;;;;;;5032646;28;20049;-43
2022/10/25 08:17:44;;;;;;;41.50;17.90;;;;;;;;;;5048100;28;20063;-40
2022/10/25 08:20:09;;;;;;;45.47;16.67;;;;;;;;;;5045775;28;20029;-44
2022/10/25 08:22:35;;;;;;;38.60;16.00;;;;;;;;;;5036912;28;20426;-44
2022/10/25 08:25:01;;;;;;;41.53;15.65;;;;;;;;;;5039629;28;20043;-44
2022/10/25 08:27:26;;;;;;;40.47;15.65;;;;;;;;;;5033053;28;20492;-45
2022/10/25 08:29:52;;;;;;;45.92;18.58;;;;;;;;;;5036037;28;20025;-44
2022/10/25 08:32:17;;;;;;;45.25;20.60;;;;;;;;;;5042018;28;20506;-45
2022/10/25 08:34:43;;;;;;;45.63;20.67;;;;;;;;;;5031324;28;20143;-46
2022/10/25 08:37:11;;;;;;;37.10;17.92;;;;;;;;;;5035000;28;20021;-45
2022/10/25 08:39:37;;;;;;;37.55;15.73;;;;;;;;;;5043574;28;20020;-45
2022/10/25 08:42:02;;;;;;;38.42;15.50;;;;;;;;;;5038827;28;20041;-44
2022/10/25 08:44:45;;;;;;;35.00;13.90;;;;;;;;;;5039949;28;20099;-44
2022/10/25 08:47:11;;;;;;;41.50;15.52;;;;;;;;;;5036874;28;20041;-44
2022/10/25 08:49:51;;;;;;;40.15;15.02;;;;;;;;;;5044460;28;20032;-44
2022/10/25 08:52:26;;;;;;;30.38;12.55;;;;;;;;;;5042207;28;20067;-44
2022/10/25 08:54:52;;;;;;;35.97;13.77;;;;;;;;;;5050480;28;20025;-44
2022/10/25 08:57:17;;;;;;;35.35;12.48;;;;;;;;;;5053538;28;20032;-43
2022/10/25 08:59:44;;;;;;;33.67;13.13;;;;;;;;;;5042305;28;20027;-43
2022/10/25 09:02:30;;;;;;;62.60;19.52;;;;;;;;;;5053115;28;20017;-42
2022/10/25 09:04:55;;;;;;;25.83;10.18;;;;;;;;;;5035474;28;20054;-43
2022/10/25 09:07:27;;;;;;;31.35;12.23;;;;;;;;;;5037976;28;20479;-43
2022/10/25 09:09:58;;;;;;;44.67;12.90;;;;;;;;;;5050116;28;20024;-44
2022/10/25 09:12:27;;;;;;;27.85;10.98;;;;;;;;;;5045037;28;20017;-45
2022/10/25 09:15:04;;;;;;;29.35;10.77;;;;;;;;;;5037409;28;20553;-40
2022/10/25 09:17:50;;;;;;;24.67;9.93;;;;;;;;;;5043126;28;20116;-43
2022/10/25 09:20:20;;;;;;;24.08;9.93;;;;;;;;;;5039198;28;20117;-41
2022/10/25 09:22:47;;;;;;;27.02;9.77;;;;;;;;;;5043648;28;20043;-41
2022/10/25 09:25:15;;;;;;;23.98;10.30;;;;;;;;;;5038373;28;20021;-42
2022/10/25 09:27:43;;;;;;;23.25;10.20;;;;;;;;;;5039136;28;20104;-43
2022/10/25 09:30:09;;;;;;;31.10;11.07;;;;;;;;;;5044497;28;20032;-40
2022/10/25 09:32:36;;;;;;;25.38;10.90;;;;;;;;;;5046733;28;20406;-42
2022/10/25 09:35:03;;;;;;;23.20;10.02;;;;;;;;;;5038622;28;20021;-45
2022/10/25 09:37:28;;;;;;;31.05;10.35;;;;;;;;;;5034464;28;20392;-43
2022/10/25 09:40:00;;;;;;;24.70;10.47;;;;;;;;;;5034102;28;20021;-43
2022/10/25 09:42:29;;;;;;;33.42;11.05;;;;;;;;;;5036993;28;20267;-41
2022/10/25 09:45:00;;;;;;;26.02;10.35;;;;;;;;;;5044884;28;20048;-39
2022/10/25 09:47:32;;;;;;;30.95;10.05;;;;;;;;;;5053953;28;20424;-43
2022/10/25 09:50:11;;;;;;;26.83;11.38;;;;;;;;;;5053770;28;20040;-44
2022/10/25 09:52:44;;;;;;;30.13;12.20;;;;;;;;;;5053281;28;20017;-34
2022/10/25 09:55:19;;;;;;;25.33;11.20;;;;;;;;;;5045331;28;20033;-34
2022/10/25 09:57:45;;;;;;;16.67;9.13;;;;;;;;;;5033819;28;20029;-34
2022/10/25 10:00:13;;;;;;;29.63;10.70;;;;;;;;;;5032704;28;22777;-33
2022/10/25 10:02:39;;;;;;;26.90;9.53;;;;;;;;;;5032624;28;20026;-33
2022/10/25 10:05:04;;;;;;;19.98;9.50;;;;;;;;;;5042679;28;20438;-34
2022/10/25 10:07:32;;;;;;;25.23;10.77;;;;;;;;;;5043033;28;20021;-34
2022/10/25 10:10:00;;;;;;;32.25;10.77;;;;;;;;;;5039107;28;20364;-33
2022/10/25 10:12:29;;;;;;;28.92;10.50;;;;;;;;;;5041254;28;20051;-32
2022/10/25 10:14:55;;;;;;;;;;;;;;;;;;5040122;28;20025;-32
2022/10/25 10:17:21;;;;;;;29.25;10.90;;;;;;;;;;5038089;28;19905;-33
2022/10/25 10:20:07;;;;;;;40.35;12.73;;;;;;;;;;5039492;28;20025;-32
2022/10/25 10:22:34;;;;;;;33.38;10.43;;;;;;;;;;5051745;28;20388;-32
2022/10/25 10:25:00;;;;;;;31.08;10.63;;;;;;;;;;5053125;28;20033;-34
2022/10/25 10:27:26;;;;;;;16.85;9.85;;;;;;;;;;5050520;28;20033;-40
2022/10/25 10:29:55;;;;;;;19.63;11.45;;;;;;;;;;5043029;28;20092;-35
2022/10/25 10:32:22;;;;;;;15.70;10.52;;;;;;;;;;5042645;28;20108;-43
2022/10/25 10:34:52;;;;;;;18.65;9.00;;;;;;;;;;5042705;28;20028;-38
2022/10/25 10:37:21;;;;;;;15.50;8.57;;;;;;;;;;5040649;28;20029;-42
2022/10/25 10:39:47;;;;;;;17.80;9.00;;;;;;;;;;5039458;28;20029;-39
2022/10/25 10:42:13;;;;;;;17.13;8.98;;;;;;;;;;5047839;28;20022;-43
2022/10/25 10:44:39;;;;;;;16.25;8.07;;;;;;;;;;5039293;28;20041;-43
2022/10/25 10:47:11;;;;;;;16.75;8.65;;;;;;;;;;5043865;28;20169;-44
2022/10/25 10:49:39;;;;;;;19.85;9.25;;;;;;;;;;5043140;28;20035;-45
2022/10/25 10:52:05;;;;;;;20.80;8.52;;;;;;;;;;5038805;28;20021;-45
2022/10/25 10:54:32;;;;;;;19.45;8.40;;;;;;;;;;5051006;28;20388;-42
2022/10/25 10:57:02;;;;;;;15.73;7.82;;;;;;;;;;5043151;28;20036;-45
2022/10/25 10:59:28;;;;;;;19.55;7.75;;;;;;;;;;5037673;28;20167;-43
2022/10/25 11:01:55;;;;;;;16.02;7.10;;;;;;;;;;5034752;28;20100;-41
2022/10/25 11:04:20;;;;;;;17.58;7.93;;;;;;;;;;5037224;28;20534;-38
2022/10/25 11:06:45;;;;;;;14.32;6.68;;;;;;;;;;5043965;28;20021;-42
2022/10/25 11:09:11;;;;;;;12.25;6.78;;;;;;;;;;5051446;28;20647;-39
2022/10/25 11:11:37;;;;;;;16.05;6.38;;;;;;;;;;5035102;28;20111;-38
2022/10/25 11:14:29;;;;;;;16.65;6.60;;;;;;;;;;5041918;28;20035;-40
2022/10/25 11:16:54;;;;;;;11.95;6.45;;;;;;;;;;5038618;28;21953;-41
2022/10/25 11:19:42;;;;;;;13.03;5.93;;;;;;;;;;5043503;28;20644;-39
2022/10/25 11:22:24;;;;;;;14.23;5.93;;;;;;;;;;5039135;28;20270;-40
2022/10/25 11:25:04;;;;;;;11.40;5.53;;;;;;;;;;5041267;28;20136;-40
2022/10/25 11:27:39;;;;;;;14.57;5.82;;;;;;;;;;5057235;28;20028;-41
2022/10/25 11:30:08;;;;;;;10.85;5.32;;;;;;;;;;5047268;28;20472;-38
2022/10/25 11:32:33;;;;;;;;;;;;;;;;;;5042606;28;20103;-38
2022/10/25 11:35:16;;;;;;;15.60;5.57;;;;;;;;;;5041157;28;20055;-39
2022/10/25 11:38:02;;;;;;;19.05;6.93;;;;;;;;;;5050365;28;20017;-40
2022/10/25 11:40:29;;;;;;;13.38;5.30;;;;;;;;;;5040247;28;20045;-42
2022/10/25 11:43:04;;;;;;;17.13;6.65;;;;;;;;;;5038269;28;20053;-40
2022/10/25 11:45:42;;;;;;;13.25;6.60;;;;;;;;;;5045940;28;20032;-41
2022/10/25 11:48:08;;;;;;;15.02;6.78;;;;;;;;;;5046180;28;20021;-40
2022/10/25 11:50:39;;;;;;;12.13;5.83;;;;;;;;;;5046351;28;20436;-41
2022/10/25 11:53:15;;;;;;;10.48;5.57;;;;;;;;;;5034906;28;20259;-38
2022/10/25 11:55:59;;;;;;;10.73;5.63;;;;;;;;;;5033372;28;20022;-39
2022/10/25 11:58:31;;;;;;;13.15;6.63;;;;;;;;;;5040033;28;20029;-42
2022/10/25 12:00:59;;;;;;;12.48;5.72;;;;;;;;;;5033474;28;20028;-41
2022/10/25 12:03:30;;;;;;;9.55;6.15;;;;;;;;;;5041672;28;20037;-46
2022/10/25 12:06:13;;;;;;;11.65;6.13;;;;;;;;;;5047923;28;20025;-42
2022/10/25 12:08:54;;;;;;;14.93;6.00;;;;;;;;;;5027998;28;20128;-44
2022/10/25 12:11:22;;;;;;;13.95;5.28;;;;;;;;;;5042379;28;20054;-41
2022/10/25 12:13:53;;;;;;;13.65;5.40;;;;;;;;;;5050527;28;20025;-41
2022/10/25 12:16:19;;;;;;;9.68;5.60;;;;;;;;;;5044321;28;20900;-40
2022/10/25 12:18:46;;;;;;;9.30;5.43;;;;;;;;;;5031635;28;20059;-40
2022/10/25 12:21:16;;;;;;;13.40;5.60;;;;;;;;;;5044539;28;20024;-44
2022/10/25 12:23:43;;;;;;;14.88;5.32;;;;;;;;;;5049234;28;20040;-40
2022/10/25 12:26:14;;;;;;;9.23;4.82;;;;;;;;;;5034861;28;20030;-40
2022/10/25 12:28:43;;;;;;;14.30;5.53;;;;;;;;;;5036129;28;20021;-38
2022/10/25 12:31:38;;;;;;;10.27;5.68;;;;;;;;;;5035063;28;20087;-40
2022/10/25 12:34:07;;;;;;;11.85;4.88;;;;;;;;;;5033583;28;20132;-44
2022/10/25 12:36:33;;;;;;;9.43;5.13;;;;;;;;;;5053678;28;20375;-41
2022/10/25 12:38:59;;;;;;;12.90;5.40;;;;;;;;;;5046379;28;20108;-42
2022/10/25 12:41:28;;;;;;;12.35;5.00;;;;;;;;;;5047996;28;20259;-43
2022/10/25 12:43:56;;;;;;;16.50;6.43;;;;;;;;;;5041095;28;20551;-40
2022/10/25 12:46:27;;;;;;;10.47;4.93;;;;;;;;;;5052744;28;20033;-45
2022/10/25 12:48:52;;;;;;;9.10;4.50;;;;;;;;;;5037583;28;20025;-42
2022/10/25 12:51:20;;;;;;;11.65;4.90;;;;;;;;;;5046074;28;20430;-40
2022/10/25 12:53:59;;;;;;;15.13;4.40;;;;;;;;;;5042922;28;20039;-44
2022/10/25 12:56:33;;;;;;;8.70;4.15;;;;;;;;;;5046320;28;20025;-41
2022/10/25 12:59:18;;;;;;;10.05;4.35;;;;;;;;;;5045689;28;20031;-41
2022/10/25 13:01:49;;;;;;;6.60;4.28;;;;;;;;;;5044289;28;20087;-43
2022/10/25 13:04:30;;;;;;;12.70;5.90;;;;;;;;;;5038765;28;20043;-45
2022/10/25 13:06:56;;;;;;;12.25;4.70;;;;;;;;;;5035985;28;20048;-41
2022/10/25 13:09:22;;;;;;;11.35;4.97;;;;;;;;;;5038144;28;21810;-43
2022/10/25 13:12:02;;;;;;;10.15;4.63;;;;;;;;;;5034322;28;20108;-42
2022/10/25 13:14:28;;;;;;;10.45;4.75;;;;;;;;;;5032553;28;20021;-40
2022/10/25 13:17:12;;;;;;;8.07;3.85;;;;;;;;;;5036177;28;20095;-39
2022/10/25 13:19:37;;;;;;;8.27;3.92;;;;;;;;;;5037798;28;20036;-38
2022/10/25 13:22:10;;;;;;;8.98;4.45;;;;;;;;;;5039972;28;20025;-46
2022/10/25 13:24:43;;;;;;;7.80;3.45;;;;;;;;;;5034180;28;20036;-42
2022/10/25 13:27:11;;;;;;;7.22;3.20;;;;;;;;;;5043621;28;20033;-40
2022/10/25 13:29:55;;;;;;;6.75;3.25;;;;;;;;;;5038140;28;20290;-37
2022/10/25 13:32:21;;;;;;;8.75;3.22;;;;;;;;;;5044530;28;20067;-42
2022/10/25 13:34:46;;;;;;;5.30;3.10;;;;;;;;;;5043173;28;20029;-41
2022/10/25 13:37:30;;;;;;;5.68;2.95;;;;;;;;;;5042646;28;20064;-43
2022/10/25 13:40:06;;;;;;;6.85;2.65;;;;;;;;;;5044390;28;20109;-40
2022/10/25 13:42:32;;;;;;;4.45;2.55;;;;;;;;;;5036436;28;20030;-41
2022/10/25 13:45:01;;;;;;;5.82;2.50;;;;;;;;;;5031133;28;20064;-44
2022/10/25 13:47:36;;;;;;;3.93;2.37;;;;;;;;;;5038623;28;20025;-41
2022/10/25 13:50:17;;;;;;;7.20;2.20;;;;;;;;;;5039616;28;20420;-45
2022/10/25 13:52:55;;;;;;;9.23;2.53;;;;;;;;;;5035896;28;20045;-43
2022/10/25 13:55:22;;;;;;;7.25;2.17;;;;;;;;;;5052712;28;20017;-40
2022/10/25 13:57:52;;;;;;;5.18;2.30;;;;;;;;;;5044045;28;20361;-38
2022/10/25 14:00:26;;;;;;;5.22;2.60;;;;;;;;;;5039799;28;20399;-40
2022/10/25 14:03:11;;;;;;;8.43;2.22;;;;;;;;;;5032193;28;20503;-44
2022/10/25 14:05:52;;;;;;;3.28;1.90;;;;;;;;;;5046137;28;20041;-38
2022/10/25 14:08:26;;;;;;;5.90;2.10;;;;;;;;;;5034935;28;20044;-40
2022/10/25 14:10:52;;;;;;;6.05;2.50;;;;;;;;;;5033748;28;20016;-45
2022/10/25 14:13:23;;;;;;;9.52;2.42;;;;;;;;;;5037381;28;20036;-40
2022/10/25 14:15:52;;;;;;;8.45;2.28;;;;;;;;;;5035589;28;20365;-39
2022/10/25 14:18:17;;;;;;;;;;;;;;;;;;5038628;28;20087;-41
2022/10/25 14:20:47;;;;;;;11.33;2.63;;;;;;;;;;5042610;28;20360;-38
2022/10/25 14:23:14;;;;;;;4.47;2.65;;;;;;;;;;5036882;28;20017;-40
2022/10/25 14:25:40;;;;;;;4.63;2.10;;;;;;;;;;5035887;28;20412;-46
2022/10/25 14:28:09;;;;;;;7.22;2.13;;;;;;;;;;5039769;28;20075;-41
2022/10/25 14:30:45;;;;;;;5.40;1.73;;;;;;;;;;5034894;28;20029;-37